createdAt,value
2023-06-28T00:01:03.020Z,98524.99
2023-06-28T00:02:29.518Z,98519.48
2023-06-28T00:03:37.710Z,98520.10
2023-06-28T00:04:46.128Z,98519.11
2023-06-28T00:05:53.466Z,98518.55
2023-06-28T00:07:01.622Z,98522.73
2023-06-28T00:08:09.473Z,98521.40
2023-06-28T00:09:17.282Z,98516.23
2023-06-28T00:10:23.939Z,98514.67
2023-06-28T00:11:31.362Z,98511.77
2023-06-28T00:12:39.301Z,98512.86
2023-06-28T00:13:47.065Z,98514.23
2023-06-28T00:14:55.473Z,98514.01
2023-06-28T00:16:04.724Z,98511.58
2023-06-28T00:17:12.235Z,98511.58
2023-06-28T00:18:19.139Z,98511.29
2023-06-28T00:19:29.399Z,98506.50
2023-06-28T00:20:38.173Z,98508.31
2023-06-28T00:21:46.780Z,98508.70
2023-06-28T00:22:54.906Z,98511.94
2023-06-28T00:24:02.771Z,98510.13
2023-06-28T00:25:10.581Z,98508.79
2023-06-28T00:26:17.896Z,98508.02
2023-06-28T00:27:25.913Z,98506.70
2023-06-28T00:28:33.464Z,98504.33
2023-06-28T00:29:42.270Z,98507.96
2023-06-28T00:30:51.077Z,98507.02
2023-06-28T00:31:59.312Z,98504.45
2023-06-28T00:33:07.589Z,98503.83
2023-06-28T00:34:14.592Z,98505.04
2023-06-28T00:35:23.070Z,98507.56
2023-06-28T00:36:31.010Z,98502.27
2023-06-28T00:37:39.708Z,98499.46
2023-06-28T00:38:48.514Z,98501.56
2023-06-28T00:39:57.952Z,98501.71
2023-06-28T00:41:05.952Z,98497.54
2023-06-28T00:42:14.311Z,98501.38
2023-06-28T00:43:22.273Z,98501.70
2023-06-28T00:44:31.384Z,98501.15
2023-06-28T00:45:38.561Z,98499.06
2023-06-28T00:46:46.938Z,98500.27
2023-06-28T00:47:54.493Z,98499.88
2023-06-28T00:49:03.583Z,98499.32
2023-06-28T00:50:11.871Z,98498.54
2023-06-28T00:51:19.898Z,98495.40
2023-06-28T00:52:29.393Z,98496.11
2023-06-28T00:53:36.606Z,98498.96
2023-06-28T00:54:45.004Z,98498.73
2023-06-28T00:55:51.981Z,98497.96
2023-06-28T00:56:59.495Z,98501.38
2023-06-28T00:58:07.284Z,98501.31
2023-06-28T00:59:14.536Z,98495.32
2023-06-28T01:00:22.919Z,98498.33
2023-06-28T01:01:31.118Z,98497.94
2023-06-28T01:02:38.153Z,98496.13
2023-06-28T01:03:48.904Z,98496.52
2023-06-28T01:04:59.910Z,98498.66
2023-06-28T01:06:12.690Z,98496.46
2023-06-28T01:07:22.840Z,98500.41
2023-06-28T01:08:29.686Z,98498.45
2023-06-28T01:09:38.351Z,98501.13
2023-06-28T01:10:47.566Z,98502.13
2023-06-28T01:11:56.997Z,98504.43
2023-06-28T01:13:04.529Z,98507.28
2023-06-28T01:14:11.731Z,98505.25
2023-06-28T01:15:20.008Z,98505.47
2023-06-28T01:16:27.730Z,98506.29
2023-06-28T01:17:36.536Z,98507.48
2023-06-28T01:18:44.347Z,98507.22
2023-06-28T01:19:51.861Z,98504.41
2023-06-28T01:20:59.704Z,98504.02
2023-06-28T01:22:12.366Z,98504.41
2023-06-28T01:23:19.875Z,98504.52
2023-06-28T01:24:27.426Z,98506.82
2023-06-28T01:25:35.810Z,98509.79
2023-06-28T01:26:44.678Z,98507.36
2023-06-28T01:27:54.435Z,98507.84
2023-06-28T01:29:01.639Z,98508.13
2023-06-28T01:30:13.300Z,98510.55
2023-06-28T01:31:21.826Z,98511.10
2023-06-28T01:32:30.570Z,98513.79
2023-06-28T01:33:45.149Z,98515.93
2023-06-28T01:34:53.033Z,98516.22
2023-06-28T01:36:01.743Z,98511.52
2023-06-28T01:37:10.230Z,98514.38
2023-06-28T01:38:21.201Z,98510.91
2023-06-28T01:39:28.188Z,98512.18
2023-06-28T01:40:38.246Z,98509.39
2023-06-28T01:41:46.293Z,98515.02
2023-06-28T01:42:54.551Z,98516.84
2023-06-28T01:44:05.828Z,98516.62
2023-06-28T01:45:18.651Z,98517.33
2023-06-28T01:46:27.899Z,98519.09
2023-06-28T01:47:40.442Z,98521.29
2023-06-28T01:48:52.294Z,98523.48
2023-06-28T01:50:03.026Z,98525.15
2023-06-28T01:51:10.961Z,98522.16
2023-06-28T01:52:19.772Z,98522.45
2023-06-28T01:53:26.406Z,98523.44
2023-06-28T01:54:35.808Z,98524.69
2023-06-28T01:55:43.131Z,98523.81
2023-06-28T01:56:56.092Z,98523.14
2023-06-28T01:58:03.208Z,98525.51
2023-06-28T01:59:25.948Z,98529.81
2023-06-28T02:00:35.346Z,98530.30
2023-06-28T02:01:44.403Z,98529.98
2023-06-28T02:02:56.601Z,98530.47
2023-06-28T02:04:05.300Z,98531.02
2023-06-28T02:05:13.654Z,98531.02
2023-06-28T02:06:23.795Z,98532.05
2023-06-28T02:07:32.088Z,98536.56
2023-06-28T02:08:45.112Z,98534.91
2023-06-28T02:09:52.709Z,98536.24
2023-06-28T02:11:03.759Z,98542.02
2023-06-28T02:12:11.553Z,98539.26
2023-06-28T02:13:19.944Z,98541.23
2023-06-28T02:14:29.848Z,98540.91
2023-06-28T02:15:40.969Z,98541.56
2023-06-28T02:16:51.675Z,98539.90
2023-06-28T02:18:01.511Z,98543.14
2023-06-28T02:19:16.612Z,98545.23
2023-06-28T02:20:24.961Z,98547.65
2023-06-28T02:21:32.045Z,98546.71
2023-06-28T02:22:40.929Z,98547.05
2023-06-28T02:23:50.482Z,98547.92
2023-06-28T02:25:01.009Z,98545.23
2023-06-28T02:26:08.152Z,98547.20
2023-06-28T02:27:15.657Z,98548.25
2023-06-28T02:28:24.982Z,98550.94
2023-06-28T02:29:32.487Z,98550.45
2023-06-28T02:30:43.642Z,98552.37
2023-06-28T02:31:52.153Z,98551.27
2023-06-28T02:33:00.764Z,98549.23
2023-06-28T02:34:08.570Z,98549.71
2023-06-28T02:35:17.857Z,98552.70
2023-06-28T02:36:26.186Z,98550.65
2023-06-28T02:37:36.100Z,98551.52
2023-06-28T02:38:43.544Z,98550.80
2023-06-28T02:39:50.659Z,98550.81
2023-06-28T02:40:57.846Z,98552.57
2023-06-28T02:42:04.824Z,98554.09
2023-06-28T02:43:12.264Z,98553.21
2023-06-28T02:44:19.779Z,98555.20
2023-06-28T02:45:30.193Z,98552.66
2023-06-28T02:46:36.923Z,98557.61
2023-06-28T02:47:43.973Z,98559.06
2023-06-28T02:48:51.708Z,98558.40
2023-06-28T02:49:58.674Z,98561.15
2023-06-28T02:51:06.329Z,98562.04
2023-06-28T02:52:14.114Z,98559.21
2023-06-28T02:53:21.866Z,98561.75
2023-06-28T02:54:29.113Z,98562.85
2023-06-28T02:55:36.055Z,98562.30
2023-06-28T02:56:45.635Z,98561.73
2023-06-28T02:58:13.599Z,98563.23
2023-06-28T02:59:20.780Z,98563.69
2023-06-28T03:00:29.472Z,98561.98
2023-06-28T03:01:37.771Z,98563.73
2023-06-28T03:02:45.004Z,98568.07
2023-06-28T03:03:53.917Z,98570.79
2023-06-28T03:05:01.513Z,98567.41
2023-06-28T03:06:10.237Z,98569.78
2023-06-28T03:07:18.877Z,98571.77
2023-06-28T03:08:26.358Z,98570.11
2023-06-28T03:09:33.349Z,98571.21
2023-06-28T03:10:43.886Z,98572.65
2023-06-28T03:11:50.875Z,98572.86
2023-06-28T03:12:59.808Z,98573.73
2023-06-28T03:14:07.612Z,98576.95
2023-06-28T03:15:16.310Z,98580.20
2023-06-28T03:16:24.927Z,98580.95
2023-06-28T03:17:32.398Z,98586.02
2023-06-28T03:18:40.572Z,98584.83
2023-06-28T03:19:48.764Z,98585.75
2023-06-28T03:20:56.471Z,98586.02
2023-06-28T03:22:03.988Z,98586.48
2023-06-28T03:23:11.557Z,98587.74
2023-06-28T03:24:19.583Z,98585.92
2023-06-28T03:25:27.207Z,98587.19
2023-06-28T03:26:35.322Z,98585.14
2023-06-28T03:27:42.677Z,98585.92
2023-06-28T03:28:50.689Z,98587.41
2023-06-28T03:29:59.490Z,98588.84
2023-06-28T03:31:08.969Z,98586.00
2023-06-28T03:32:17.177Z,98585.38
2023-06-28T03:33:25.240Z,98585.61
2023-06-28T03:34:33.134Z,98588.89
2023-06-28T03:35:40.668Z,98589.90
2023-06-28T03:37:02.637Z,98588.96
2023-06-28T03:38:12.815Z,98595.23
2023-06-28T03:39:22.417Z,98591.35
2023-06-28T03:40:32.292Z,98593.88
2023-06-28T03:41:40.011Z,98597.02
2023-06-28T03:42:47.751Z,98599.55
2023-06-28T03:43:55.593Z,98596.48
2023-06-28T03:45:03.916Z,98597.58
2023-06-28T03:46:11.707Z,98600.40
2023-06-28T03:47:19.774Z,98602.44
2023-06-28T03:48:27.990Z,98603.77
2023-06-28T03:49:35.823Z,98608.42
2023-06-28T03:50:44.552Z,98607.70
2023-06-28T03:51:51.776Z,98608.65
2023-06-28T03:52:59.687Z,98609.48
2023-06-28T03:54:07.111Z,98609.27
2023-06-28T03:55:14.802Z,98610.20
2023-06-28T03:56:22.518Z,98610.10
2023-06-28T03:57:29.308Z,98612.80
2023-06-28T03:58:36.705Z,98612.80
2023-06-28T03:59:46.384Z,98611.98
2023-06-28T04:00:56.282Z,98614.34
2023-06-28T04:02:03.125Z,98616.92
2023-06-28T04:03:10.422Z,98615.58
2023-06-28T04:04:17.331Z,98615.19
2023-06-28T04:05:24.936Z,98619.19
2023-06-28T04:06:32.933Z,98623.83
2023-06-28T04:07:39.965Z,98621.14
2023-06-28T04:08:49.002Z,98618.98
2023-06-28T04:09:55.545Z,98621.19
2023-06-28T04:11:02.221Z,98625.38
2023-06-28T04:12:12.330Z,98630.73
2023-06-28T04:13:19.823Z,98631.89
2023-06-28T04:14:26.936Z,98634.48
2023-06-28T04:15:37.513Z,98637.95
2023-06-28T04:16:44.291Z,98642.09
2023-06-28T04:17:50.864Z,98641.70
2023-06-28T04:19:01.281Z,98642.33
2023-06-28T04:20:09.613Z,98646.17
2023-06-28T04:21:19.238Z,98647.17
2023-06-28T04:22:26.268Z,98649.77
2023-06-28T04:23:32.811Z,98649.83
2023-06-28T04:24:40.586Z,98650.70
2023-06-28T04:25:50.894Z,98650.83
2023-06-28T04:27:03.297Z,98649.00
2023-06-28T04:28:10.931Z,98650.05
2023-06-28T04:29:18.772Z,98651.60
2023-06-28T04:30:27.077Z,98651.92
2023-06-28T04:31:35.514Z,98656.11
2023-06-28T04:32:45.578Z,98656.00
2023-06-28T04:33:54.615Z,98657.50
2023-06-28T04:35:05.031Z,98659.14
2023-06-28T04:36:12.893Z,98657.34
2023-06-28T04:37:20.709Z,98657.29
2023-06-28T04:38:27.600Z,98658.72
2023-06-28T04:39:34.158Z,98657.55
2023-06-28T04:40:41.755Z,98661.08
2023-06-28T04:41:48.776Z,98661.48
2023-06-28T04:42:55.516Z,98659.17
2023-06-28T04:44:02.156Z,98658.79
2023-06-28T04:45:12.027Z,98659.88
2023-06-28T04:46:19.044Z,98661.98
2023-06-28T04:47:29.073Z,98661.33
2023-06-28T04:48:35.942Z,98665.67
2023-06-28T04:49:43.426Z,98661.55
2023-06-28T04:50:50.559Z,98664.86
2023-06-28T04:51:58.779Z,98666.35
2023-06-28T04:53:09.365Z,98665.31
2023-06-28T04:54:17.811Z,98664.38
2023-06-28T04:55:24.829Z,98666.46
2023-06-28T04:56:32.716Z,98668.77
2023-06-28T04:57:41.813Z,98669.88
2023-06-28T04:58:49.414Z,98671.27
2023-06-28T04:59:58.856Z,98670.71
2023-06-28T05:01:11.205Z,98670.71
2023-06-28T05:02:18.441Z,98670.84
2023-06-28T05:03:30.359Z,98670.13
2023-06-28T05:04:39.502Z,98668.73
2023-06-28T05:05:47.279Z,98672.42
2023-06-28T05:06:54.782Z,98673.36
2023-06-28T05:08:02.640Z,98672.33
2023-06-28T05:09:11.375Z,98673.04
2023-06-28T05:10:20.235Z,98675.08
2023-06-28T05:11:27.443Z,98674.20
2023-06-28T05:12:36.327Z,98672.45
2023-06-28T05:13:43.746Z,98673.09
2023-06-28T05:14:50.815Z,98673.48
2023-06-28T05:15:59.086Z,98671.85
2023-06-28T05:17:06.208Z,98672.61
2023-06-28T05:18:14.183Z,98675.76
2023-06-28T05:19:21.965Z,98674.88
2023-06-28T05:20:31.409Z,98674.16
2023-06-28T05:21:39.622Z,98670.75
2023-06-28T05:22:52.883Z,98671.47
2023-06-28T05:24:00.441Z,98670.44
2023-06-28T05:25:09.939Z,98672.15
2023-06-28T05:26:17.449Z,98674.50
2023-06-28T05:27:25.485Z,98675.23
2023-06-28T05:28:32.361Z,98678.20
2023-06-28T05:29:40.570Z,98677.42
2023-06-28T05:30:48.526Z,98678.91
2023-06-28T05:31:56.295Z,98675.89
2023-06-28T05:33:05.670Z,98678.59
2023-06-28T05:34:17.064Z,98681.11
2023-06-28T05:35:24.937Z,98683.77
2023-06-28T05:36:32.352Z,98686.90
2023-06-28T05:37:40.526Z,98689.10
2023-06-28T05:38:48.996Z,98689.81
2023-06-28T05:39:57.411Z,98691.86
2023-06-28T05:41:19.072Z,98695.01
2023-06-28T05:42:26.229Z,98696.10
2023-06-28T05:43:33.169Z,98695.94
2023-06-28T05:44:40.375Z,98694.90
2023-06-28T05:45:48.134Z,98693.16
2023-06-28T05:46:55.349Z,98693.59
2023-06-28T05:48:04.094Z,98692.15
2023-06-28T05:49:11.694Z,98693.41
2023-06-28T05:50:19.510Z,98691.77
2023-06-28T05:51:27.650Z,98689.85
2023-06-28T05:52:35.269Z,98695.52
2023-06-28T05:53:43.678Z,98693.05
2023-06-28T05:54:51.033Z,98691.00
2023-06-28T05:55:59.038Z,98691.89
2023-06-28T05:57:06.862Z,98696.45
2023-06-28T05:58:15.031Z,98691.89
2023-06-28T05:59:21.959Z,98689.91
2023-06-28T06:00:29.315Z,98692.27
2023-06-28T06:01:37.020Z,98690.13
2023-06-28T06:02:44.559Z,98691.08
2023-06-28T06:03:53.541Z,98689.19
2023-06-28T06:05:05.075Z,98692.11
2023-06-28T06:06:12.509Z,98694.60
2023-06-28T06:07:19.623Z,98695.70
2023-06-28T06:08:27.034Z,98697.13
2023-06-28T06:09:35.008Z,98700.05
2023-06-28T06:10:42.500Z,98700.10
2023-06-28T06:11:51.035Z,98699.94
2023-06-28T06:12:58.404Z,98701.38
2023-06-28T06:14:05.937Z,98701.83
2023-06-28T06:15:13.578Z,98701.92
2023-06-28T06:16:21.244Z,98702.05
2023-06-28T06:17:27.828Z,98703.38
2023-06-28T06:18:38.766Z,98703.92
2023-06-28T06:19:48.710Z,98703.52
2023-06-28T06:20:55.335Z,98699.23
2023-06-28T06:22:02.188Z,98698.19
2023-06-28T06:23:08.805Z,98695.50
2023-06-28T06:24:18.229Z,98692.41
2023-06-28T06:25:24.839Z,98689.44
2023-06-28T06:26:31.585Z,98687.70
2023-06-28T06:27:38.544Z,98685.33
2023-06-28T06:28:44.930Z,98685.05
2023-06-28T06:29:51.597Z,98684.11
2023-06-28T06:30:58.429Z,98683.50
2023-06-28T06:32:05.238Z,98686.80
2023-06-28T06:33:12.260Z,98685.65
2023-06-28T06:34:18.958Z,98686.20
2023-06-28T06:35:27.019Z,98689.34
2023-06-28T06:36:33.635Z,98690.89
2023-06-28T06:37:40.621Z,98693.73
2023-06-28T06:38:48.372Z,98692.05
2023-06-28T06:39:56.325Z,98693.86
2023-06-28T06:41:03.110Z,98691.40
2023-06-28T06:42:09.816Z,98690.23
2023-06-28T06:43:16.789Z,98693.76
2023-06-28T06:44:24.552Z,98692.27
2023-06-28T06:45:31.367Z,98692.21
2023-06-28T06:46:39.011Z,98691.56
2023-06-28T06:47:47.239Z,98692.50
2023-06-28T06:48:55.050Z,98695.09
2023-06-28T06:50:02.141Z,98696.73
2023-06-28T06:51:09.445Z,98696.58
2023-06-28T06:52:16.479Z,98698.61
2023-06-28T06:53:23.428Z,98696.80
2023-06-28T06:54:31.633Z,98698.23
2023-06-28T06:55:38.760Z,98699.23
2023-06-28T06:56:45.224Z,98699.11
2023-06-28T06:57:51.996Z,98694.98
2023-06-28T06:58:58.658Z,98696.30
2023-06-28T07:00:07.881Z,98698.28
2023-06-28T07:01:15.140Z,98697.07
2023-06-28T07:02:23.833Z,98699.11
2023-06-28T07:03:30.503Z,98699.66
2023-06-28T07:04:40.435Z,98699.11
2023-06-28T07:05:47.454Z,98698.06
2023-06-28T07:06:54.347Z,98697.36
2023-06-28T07:08:01.169Z,98697.42
2023-06-28T07:09:08.012Z,98700.05
2023-06-28T07:10:17.598Z,98699.40
2023-06-28T07:11:24.827Z,98698.75
2023-06-28T07:12:31.673Z,98699.46
2023-06-28T07:13:38.939Z,98699.52
2023-06-28T07:14:45.594Z,98699.92
2023-06-28T07:15:52.305Z,98702.28
2023-06-28T07:16:58.797Z,98698.48
2023-06-28T07:18:06.204Z,98697.61
2023-06-28T07:19:12.869Z,98699.81
2023-06-28T07:20:22.306Z,98697.16
2023-06-28T07:21:28.853Z,98696.51
2023-06-28T07:22:35.813Z,98699.80
2023-06-28T07:23:42.572Z,98699.86
2023-06-28T07:24:49.143Z,98699.63
2023-06-28T07:25:55.729Z,98701.18
2023-06-28T07:27:02.905Z,98703.89
2023-06-28T07:28:09.554Z,98704.01
2023-06-28T07:29:16.313Z,98701.48
2023-06-28T07:30:25.995Z,98703.46
2023-06-28T07:31:33.097Z,98701.63
2023-06-28T07:32:40.082Z,98699.45
2023-06-28T07:33:46.790Z,98698.89
2023-06-28T07:34:53.363Z,98699.98
2023-06-28T07:36:00.137Z,98699.50
2023-06-28T07:37:10.789Z,98697.95
2023-06-28T07:38:23.562Z,98698.51
2023-06-28T07:39:32.953Z,98699.01
2023-06-28T07:40:40.461Z,98699.63
2023-06-28T07:41:48.242Z,98698.20
2023-06-28T07:42:56.026Z,98699.63
2023-06-28T07:44:02.786Z,98698.58
2023-06-28T07:45:10.570Z,98698.91
2023-06-28T07:46:17.460Z,98698.98
2023-06-28T07:47:24.350Z,98697.80
2023-06-28T07:48:31.500Z,98699.84
2023-06-28T07:49:38.715Z,98702.27
2023-06-28T07:50:45.498Z,98706.13
2023-06-28T07:51:53.336Z,98703.77
2023-06-28T07:53:03.094Z,98708.71
2023-06-28T07:54:20.332Z,98710.83
2023-06-28T07:55:32.202Z,98710.39
2023-06-28T07:56:39.152Z,98712.21
2023-06-28T07:57:47.252Z,98712.92
2023-06-28T07:58:56.499Z,98715.07
2023-06-28T08:00:07.206Z,98714.01
2023-06-28T08:01:18.167Z,98711.65
2023-06-28T08:02:26.150Z,98710.29
2023-06-28T08:03:33.711Z,98710.34
2023-06-28T08:04:42.227Z,98710.71
2023-06-28T08:05:50.991Z,98711.81
2023-06-28T08:06:58.852Z,98713.38
2023-06-28T08:08:08.260Z,98710.39
2023-06-28T08:09:15.783Z,98711.17
2023-06-28T08:10:25.397Z,98710.06
2023-06-28T08:11:34.620Z,98708.08
2023-06-28T08:12:42.773Z,98709.50
2023-06-28T08:13:52.196Z,98708.63
2023-06-28T08:15:00.760Z,98706.82
2023-06-28T08:16:08.547Z,98706.66
2023-06-28T08:17:16.679Z,98706.05
2023-06-28T08:18:24.367Z,98705.88
2023-06-28T08:19:31.204Z,98705.17
2023-06-28T08:20:38.199Z,98706.01
2023-06-28T08:21:46.759Z,98705.23
2023-06-28T08:22:54.048Z,98703.41
2023-06-28T08:24:02.473Z,98706.00
2023-06-28T08:25:10.857Z,98703.58
2023-06-28T08:26:19.082Z,98703.08
2023-06-28T08:27:27.297Z,98703.02
2023-06-28T08:28:43.510Z,98703.79
2023-06-28T08:30:02.614Z,98703.38
2023-06-28T08:31:10.759Z,98701.95
2023-06-28T08:32:19.192Z,98699.52
2023-06-28T08:33:27.350Z,98701.40
2023-06-28T08:34:34.978Z,98703.44
2023-06-28T08:35:42.560Z,98704.47
2023-06-28T08:36:49.910Z,98702.98
2023-06-28T08:37:56.975Z,98703.11
2023-06-28T08:39:04.232Z,98706.02
2023-06-28T08:40:12.914Z,98707.61
2023-06-28T08:41:21.051Z,98703.59
2023-06-28T08:42:27.696Z,98703.43
2023-06-28T08:43:34.381Z,98703.43
2023-06-28T08:44:42.302Z,98702.55
2023-06-28T08:45:50.424Z,98702.61
2023-06-28T08:46:58.551Z,98705.20
2023-06-28T08:48:20.105Z,98706.80
2023-06-28T08:49:36.074Z,98706.70
2023-06-28T08:50:45.754Z,98708.80
2023-06-28T08:51:52.279Z,98704.38
2023-06-28T08:52:59.454Z,98701.58
2023-06-28T08:54:06.403Z,98697.17
2023-06-28T08:55:14.428Z,98699.16
2023-06-28T08:56:25.025Z,98694.98
2023-06-28T08:57:31.843Z,98693.54
2023-06-28T08:58:38.668Z,98695.35
2023-06-28T08:59:46.067Z,98695.58
2023-06-28T09:00:56.404Z,98691.85
2023-06-28T09:02:04.149Z,98689.27
2023-06-28T09:03:12.854Z,98689.42
2023-06-28T09:04:20.173Z,98688.54
2023-06-28T09:05:26.967Z,98684.14
2023-06-28T09:06:34.233Z,98684.52
2023-06-28T09:07:43.193Z,98683.75
2023-06-28T09:08:50.002Z,98683.98
2023-06-28T09:09:57.435Z,98685.56
2023-06-28T09:11:06.193Z,98687.39
2023-06-28T09:12:17.493Z,98684.58
2023-06-28T09:13:24.813Z,98681.98
2023-06-28T09:14:31.762Z,98682.00
2023-06-28T09:15:41.992Z,98683.16
2023-06-28T09:16:48.874Z,98681.17
2023-06-28T09:17:56.018Z,98683.37
2023-06-28T09:19:03.662Z,98681.89
2023-06-28T09:20:21.667Z,98681.58
2023-06-28T09:21:29.484Z,98682.80
2023-06-28T09:22:37.237Z,98679.27
2023-06-28T09:23:44.706Z,98681.63
2023-06-28T09:24:52.544Z,98680.92
2023-06-28T09:26:01.087Z,98680.20
2023-06-28T09:27:09.098Z,98680.42
2023-06-28T09:28:16.350Z,98678.05
2023-06-28T09:29:32.938Z,98679.27
2023-06-28T09:30:40.591Z,98677.85
2023-06-28T09:31:49.765Z,98676.58
2023-06-28T09:32:56.510Z,98674.82
2023-06-28T09:34:03.540Z,98677.56
2023-06-28T09:35:13.270Z,98674.66
2023-06-28T09:36:20.376Z,98674.21
2023-06-28T09:37:27.207Z,98673.16
2023-06-28T09:38:35.995Z,98671.73
2023-06-28T09:39:42.837Z,98674.48
2023-06-28T09:41:05.096Z,98673.22
2023-06-28T09:42:11.735Z,98674.21
2023-06-28T09:43:19.021Z,98674.27
2023-06-28T09:44:32.861Z,98673.05
2023-06-28T09:45:39.942Z,98677.33
2023-06-28T09:46:48.596Z,98676.02
2023-06-28T09:48:05.796Z,98673.73
2023-06-28T09:49:29.100Z,98676.25
2023-06-28T09:50:51.223Z,98676.24
2023-06-28T09:52:08.478Z,98675.05
2023-06-28T09:53:21.311Z,98677.33
2023-06-28T09:54:33.797Z,98676.61
2023-06-28T09:55:42.864Z,98677.16
2023-06-28T09:56:51.721Z,98675.73
2023-06-28T09:57:59.240Z,98677.48
2023-06-28T09:59:14.760Z,98673.30
2023-06-28T10:00:28.019Z,98675.17
2023-06-28T10:01:41.275Z,98672.58
2023-06-28T10:02:49.475Z,98670.66
2023-06-28T10:03:56.777Z,98670.61
2023-06-28T10:05:05.039Z,98667.69
2023-06-28T10:06:12.742Z,98667.20
2023-06-28T10:07:19.934Z,98667.14
2023-06-28T10:08:27.029Z,98664.54
2023-06-28T10:09:44.836Z,98664.61
2023-06-28T10:10:52.933Z,98658.39
2023-06-28T10:12:00.073Z,98661.86
2023-06-28T10:13:09.053Z,98661.91
2023-06-28T10:14:15.636Z,98665.77
2023-06-28T10:15:25.908Z,98670.66
2023-06-28T10:16:33.034Z,98673.09
2023-06-28T10:17:40.730Z,98674.02
2023-06-28T10:18:48.337Z,98673.63
2023-06-28T10:19:56.641Z,98676.40
2023-06-28T10:21:05.268Z,98679.77
2023-06-28T10:22:13.981Z,98685.44
2023-06-28T10:23:22.181Z,98686.44
2023-06-28T10:24:34.616Z,98685.48
2023-06-28T10:25:44.580Z,98686.27
2023-06-28T10:26:52.882Z,98687.42
2023-06-28T10:27:59.917Z,98690.11
2023-06-28T10:29:07.437Z,98690.23
2023-06-28T10:30:14.653Z,98687.54
2023-06-28T10:31:23.360Z,98687.54
2023-06-28T10:32:30.925Z,98687.36
2023-06-28T10:33:41.606Z,98688.80
2023-06-28T10:34:50.176Z,98691.61
2023-06-28T10:35:58.302Z,98694.98
2023-06-28T10:37:05.360Z,98695.90
2023-06-28T10:38:13.472Z,98694.48
2023-06-28T10:39:21.109Z,98690.73
2023-06-28T10:40:28.395Z,98694.09
2023-06-28T10:41:36.263Z,98694.64
2023-06-28T10:42:44.044Z,98695.80
2023-06-28T10:43:53.394Z,98695.86
2023-06-28T10:45:00.173Z,98699.73
2023-06-28T10:46:16.536Z,98697.20
2023-06-28T10:47:23.915Z,98696.70
2023-06-28T10:48:30.878Z,98697.80
2023-06-28T10:49:37.933Z,98699.67
2023-06-28T10:50:45.353Z,98700.17
2023-06-28T10:51:52.216Z,98703.80
2023-06-28T10:52:59.673Z,98700.40
2023-06-28T10:54:15.411Z,98700.56
2023-06-28T10:55:24.618Z,98701.48
2023-06-28T10:56:38.987Z,98701.40
2023-06-28T10:57:46.473Z,98704.86
2023-06-28T10:58:57.405Z,98706.48
2023-06-28T11:00:08.482Z,98706.41
2023-06-28T11:01:37.123Z,98706.25
2023-06-28T11:02:58.049Z,98709.05
2023-06-28T11:04:27.844Z,98709.02
2023-06-28T11:05:55.994Z,98715.46
2023-06-28T11:07:18.679Z,98715.95
2023-06-28T11:08:38.879Z,98715.92
2023-06-28T11:10:13.447Z,98717.35
2023-06-28T11:11:38.674Z,98717.31
2023-06-28T11:12:52.267Z,98717.58
2023-06-28T11:14:00.127Z,98722.59
2023-06-28T11:15:11.350Z,98725.29
2023-06-28T11:16:23.560Z,98722.20
2023-06-28T11:17:30.650Z,98720.55
2023-06-28T11:18:37.825Z,98722.64
2023-06-28T11:19:45.579Z,98720.05
2023-06-28T11:20:59.989Z,98718.27
2023-06-28T11:22:07.575Z,98718.23
2023-06-28T11:23:25.012Z,98721.70
2023-06-28T11:24:49.255Z,98722.31
2023-06-28T11:26:00.294Z,98724.23
2023-06-28T11:27:13.337Z,98726.77
2023-06-28T11:28:25.756Z,98725.34
2023-06-28T11:29:33.274Z,98726.21
2023-06-28T11:30:51.323Z,98723.30
2023-06-28T11:32:00.477Z,98721.48
2023-06-28T11:33:08.368Z,98721.00
2023-06-28T11:34:16.882Z,98722.59
2023-06-28T11:35:24.473Z,98727.94
2023-06-28T11:36:32.145Z,98730.36
2023-06-28T11:37:40.614Z,98731.56
2023-06-28T11:38:48.904Z,98735.09
2023-06-28T11:39:56.853Z,98733.28
2023-06-28T11:41:04.777Z,98734.15
2023-06-28T11:42:17.650Z,98735.31
2023-06-28T11:43:24.968Z,98734.34
2023-06-28T11:44:32.667Z,98735.21
2023-06-28T11:45:43.252Z,98738.24
2023-06-28T11:46:51.107Z,98738.30
2023-06-28T11:47:58.410Z,98739.73
2023-06-28T11:49:05.015Z,98740.99
2023-06-28T11:50:11.776Z,98743.36
2023-06-28T11:51:20.287Z,98738.58
2023-06-28T11:52:27.207Z,98744.14
2023-06-28T11:53:34.294Z,98747.23
2023-06-28T11:54:42.820Z,98750.73
2023-06-28T11:55:50.371Z,98752.55
2023-06-28T11:56:59.224Z,98750.35
2023-06-28T11:58:06.391Z,98754.77
2023-06-28T11:59:22.108Z,98756.02
2023-06-28T12:00:41.646Z,98755.30
2023-06-28T12:01:49.084Z,98756.08
2023-06-28T12:02:56.602Z,98754.88
2023-06-28T12:04:03.445Z,98753.88
2023-06-28T12:05:10.901Z,98751.35
2023-06-28T12:06:17.619Z,98754.81
2023-06-28T12:07:25.190Z,98755.15
2023-06-28T12:08:36.990Z,98754.98
2023-06-28T12:09:43.643Z,98758.44
2023-06-28T12:10:51.060Z,98757.67
2023-06-28T12:12:00.997Z,98757.56
2023-06-28T12:13:08.730Z,98756.64
2023-06-28T12:14:16.637Z,98756.02
2023-06-28T12:15:26.427Z,98758.83
2023-06-28T12:16:32.939Z,98759.33
2023-06-28T12:17:43.862Z,98758.61
2023-06-28T12:19:02.039Z,98757.73
2023-06-28T12:20:12.898Z,98755.52
2023-06-28T12:21:27.197Z,98756.79
2023-06-28T12:22:46.267Z,98757.23
2023-06-28T12:23:53.587Z,98757.63
2023-06-28T12:25:02.909Z,98757.19
2023-06-28T12:26:10.314Z,98757.30
2023-06-28T12:27:18.309Z,98761.31
2023-06-28T12:28:25.777Z,98761.10
2023-06-28T12:29:34.906Z,98759.66
2023-06-28T12:30:43.296Z,98762.91
2023-06-28T12:31:51.827Z,98763.14
2023-06-28T12:33:01.979Z,98763.68
2023-06-28T12:34:08.482Z,98762.64
2023-06-28T12:35:25.964Z,98766.04
2023-06-28T12:36:36.241Z,98767.70
2023-06-28T12:37:45.744Z,98768.64
2023-06-28T12:38:56.158Z,98767.31
2023-06-28T12:40:07.663Z,98768.09
2023-06-28T12:41:18.912Z,98766.83
2023-06-28T12:42:27.538Z,98766.98
2023-06-28T12:43:34.722Z,98767.59
2023-06-28T12:44:54.190Z,98765.27
2023-06-28T12:46:05.932Z,98765.44
2023-06-28T12:47:12.582Z,98765.94
2023-06-28T12:48:20.348Z,98763.35
2023-06-28T12:49:41.570Z,98764.29
2023-06-28T12:50:54.657Z,98764.63
2023-06-28T12:52:02.229Z,98765.73
2023-06-28T12:53:09.698Z,98767.98
2023-06-28T12:54:18.178Z,98769.95
2023-06-28T12:55:25.667Z,98772.77
2023-06-28T12:56:33.829Z,98774.70
2023-06-28T12:57:43.211Z,98775.30
2023-06-28T12:58:53.073Z,98774.52
2023-06-28T13:00:00.294Z,98776.57
2023-06-28T13:01:08.145Z,98777.83
2023-06-28T13:02:16.270Z,98777.89
2023-06-28T13:03:24.220Z,98775.58
2023-06-28T13:04:36.167Z,98774.98
2023-06-28T13:05:44.898Z,98775.52
2023-06-28T13:06:53.703Z,98774.64
2023-06-28T13:08:05.182Z,98772.12
2023-06-28T13:09:13.509Z,98768.76
2023-06-28T13:10:21.732Z,98766.19
2023-06-28T13:11:33.640Z,98766.35
2023-06-28T13:12:40.864Z,98767.39
2023-06-28T13:13:49.356Z,98767.77
2023-06-28T13:14:57.506Z,98768.33
2023-06-28T13:16:05.372Z,98765.64
2023-06-28T13:17:13.010Z,98765.25
2023-06-28T13:18:21.115Z,98768.88
2023-06-28T13:19:29.208Z,98766.52
2023-06-28T13:20:38.302Z,98769.83
2023-06-28T13:21:48.405Z,98769.66
2023-06-28T13:22:56.303Z,98766.52
2023-06-28T13:24:06.123Z,98766.41
2023-06-28T13:25:12.721Z,98767.73
2023-06-28T13:26:21.010Z,98764.65
2023-06-28T13:27:27.884Z,98766.85
2023-06-28T13:28:36.707Z,98767.19
2023-06-28T13:29:44.283Z,98767.95
2023-06-28T13:30:51.775Z,98771.75